createdAt,value
2017-01-19T00:00:10.213Z,1033.8
2017-01-19T00:01:21.598Z,1033.77
2017-01-19T00:02:32.992Z,1033.76
2017-01-19T00:03:44.433Z,1033.78
2017-01-19T00:04:55.826Z,1033.78
2017-01-19T00:06:07.236Z,1033.8
2017-01-19T00:07:18.838Z,1033.8
2017-01-19T00:08:30.233Z,1033.72
2017-01-19T00:09:41.675Z,1033.67
2017-01-19T00:10:53.069Z,1033.68
2017-01-19T00:12:04.456Z,1033.68
2017-01-19T00:13:15.849Z,1033.69
2017-01-19T00:14:27.256Z,1033.7
2017-01-19T00:15:38.695Z,1033.66
2017-01-19T00:16:50.088Z,1033.69
2017-01-19T00:18:01.682Z,1033.68
2017-01-19T00:19:13.075Z,1033.67
2017-01-19T00:20:24.666Z,1033.63
2017-01-19T00:21:36.117Z,1033.62
2017-01-19T00:22:47.518Z,1033.62
2017-01-19T00:23:58.910Z,1033.56
2017-01-19T00:25:10.299Z,1033.6
2017-01-19T00:26:21.698Z,1033.6
2017-01-19T00:27:33.142Z,1033.62
2017-01-19T00:28:44.732Z,1033.65
2017-01-19T00:29:56.120Z,1033.67
2017-01-19T00:31:07.511Z,1033.66
2017-01-19T00:32:18.903Z,1033.65
2017-01-19T00:33:30.355Z,1033.62
2017-01-19T00:34:41.945Z,1033.59
2017-01-19T00:35:53.339Z,1033.56
2017-01-19T00:37:04.730Z,1033.61
2017-01-19T00:38:16.119Z,1033.61
2017-01-19T00:39:27.562Z,1033.6
2017-01-19T00:40:38.950Z,1033.64
2017-01-19T00:41:50.339Z,1033.68
2017-01-19T00:43:01.729Z,1033.64
2017-01-19T00:44:13.120Z,1033.69
2017-01-19T00:45:24.569Z,1033.65
2017-01-19T00:46:35.964Z,1033.7
2017-01-19T00:47:47.352Z,1033.71
2017-01-19T00:48:58.748Z,1033.67
2017-01-19T00:50:10.144Z,1033.67
2017-01-19T00:51:21.591Z,1033.65
2017-01-19T00:52:32.988Z,1033.65
2017-01-19T00:53:44.383Z,1033.67
2017-01-19T00:54:55.779Z,1033.67
2017-01-19T00:56:07.171Z,1033.69
2017-01-19T00:57:18.619Z,1033.7
2017-01-19T00:58:30.008Z,1033.64
2017-01-19T00:59:41.404Z,1033.66
2017-01-19T01:00:53.204Z,1033.63
2017-01-19T01:02:04.593Z,1033.58
2017-01-19T01:03:16.035Z,1033.58
2017-01-19T01:04:27.425Z,1033.61
2017-01-19T01:05:39.250Z,1033.56
2017-01-19T01:06:50.643Z,1033.64
2017-01-19T01:08:02.242Z,1033.58
2017-01-19T01:09:13.888Z,1033.61
2017-01-19T01:10:25.489Z,1033.66
2017-01-19T01:11:36.879Z,1033.63
2017-01-19T01:12:48.269Z,1033.61
2017-01-19T01:13:59.663Z,1033.6
2017-01-19T01:15:11.312Z,1033.58
2017-01-19T01:16:22.718Z,1033.6
2017-01-19T01:17:34.112Z,1033.59
2017-01-19T01:18:45.507Z,1033.6
2017-01-19T01:19:56.906Z,1033.56
2017-01-19T01:21:08.351Z,1033.62
2017-01-19T01:22:19.946Z,1033.66
2017-01-19T01:23:31.338Z,1033.63
2017-01-19T01:24:42.730Z,1033.65
2017-01-19T01:25:54.123Z,1033.58
2017-01-19T01:27:05.570Z,1033.63
2017-01-19T01:28:16.960Z,1033.59
2017-01-19T01:29:28.358Z,1033.69
2017-01-19T01:30:39.746Z,1033.62
2017-01-19T01:31:51.362Z,1033.66
2017-01-19T01:33:02.802Z,1033.68
2017-01-19T01:34:14.191Z,1033.65
2017-01-19T01:35:25.592Z,1033.68
2017-01-19T01:36:36.980Z,1033.69
2017-01-19T01:37:48.375Z,1033.71
2017-01-19T01:38:59.829Z,1033.73
2017-01-19T01:40:11.215Z,1033.7
2017-01-19T01:41:22.807Z,1033.69
2017-01-19T01:42:34.407Z,1033.69
2017-01-19T01:43:45.803Z,1033.69
2017-01-19T01:44:57.241Z,1033.69
2017-01-19T01:46:08.839Z,1033.66
2017-01-19T01:47:20.235Z,1033.69
2017-01-19T01:48:31.651Z,1033.65
2017-01-19T01:49:43.042Z,1033.69
2017-01-19T01:50:54.480Z,1033.72
2017-01-19T01:52:05.890Z,1033.69
2017-01-19T01:53:17.292Z,1033.72
2017-01-19T01:54:28.682Z,1033.73
2017-01-19T01:55:40.074Z,1033.74
2017-01-19T01:56:51.521Z,1033.84
2017-01-19T01:58:02.917Z,1033.86
2017-01-19T01:59:14.319Z,1033.88
2017-01-19T02:00:25.716Z,1033.79
2017-01-19T02:01:37.108Z,1033.82
2017-01-19T02:02:48.561Z,1033.81
2017-01-19T02:03:59.948Z,1033.75
2017-01-19T02:05:11.353Z,1033.81
2017-01-19T02:06:22.742Z,1033.78
2017-01-19T02:07:34.135Z,1033.8
2017-01-19T02:08:45.576Z,1033.73
2017-01-19T02:09:56.974Z,1033.75
2017-01-19T02:11:08.371Z,1033.75
2017-01-19T02:12:19.979Z,1033.8
2017-01-19T02:13:31.392Z,1033.79
2017-01-19T02:14:42.845Z,1033.83
2017-01-19T02:15:54.238Z,1033.82
2017-01-19T02:17:05.833Z,1033.81
2017-01-19T02:18:17.231Z,1033.87
2017-01-19T02:19:28.828Z,1033.82
2017-01-19T02:20:40.271Z,1033.85
2017-01-19T02:21:51.664Z,1033.87
2017-01-19T02:23:03.054Z,1033.91
2017-01-19T02:24:14.444Z,1033.89
2017-01-19T02:25:25.839Z,1033.87
2017-01-19T02:26:37.485Z,1033.83
2017-01-19T02:27:48.886Z,1033.81
2017-01-19T02:29:00.273Z,1033.86
2017-01-19T02:30:11.664Z,1033.8
2017-01-19T02:31:23.058Z,1033.82
2017-01-19T02:32:34.505Z,1033.84
2017-01-19T02:33:45.908Z,1033.83
2017-01-19T02:34:57.513Z,1033.87
2017-01-19T02:36:08.907Z,1033.88
2017-01-19T02:37:20.324Z,1033.9
2017-01-19T02:38:31.768Z,1033.88
2017-01-19T02:39:43.366Z,1033.95
2017-01-19T02:40:54.961Z,1033.92
2017-01-19T02:42:06.565Z,1033.93
2017-01-19T02:43:17.967Z,1033.91
2017-01-19T02:44:29.615Z,1033.92
2017-01-19T02:45:41.007Z,1033.92
2017-01-19T02:46:52.402Z,1033.9
2017-01-19T02:48:03.804Z,1033.87
2017-01-19T02:49:15.192Z,1033.87
2017-01-19T02:50:26.640Z,1033.85
2017-01-19T02:51:38.038Z,1033.89
2017-01-19T02:52:49.636Z,1033.83
2017-01-19T02:54:01.031Z,1033.83
2017-01-19T02:55:12.628Z,1033.82
2017-01-19T02:56:24.065Z,1033.83
2017-01-19T02:57:35.467Z,1033.79
2017-01-19T02:58:46.874Z,1033.82
2017-01-19T02:59:58.481Z,1033.8
2017-01-19T03:01:09.878Z,1033.73
2017-01-19T03:02:21.320Z,1033.77
2017-01-19T03:03:32.727Z,1033.81
2017-01-19T03:04:44.320Z,1033.8
2017-01-19T03:05:55.720Z,1033.82
2017-01-19T03:07:07.114Z,1033.82
2017-01-19T03:08:18.560Z,1033.82
2017-01-19T03:09:29.954Z,1033.86
2017-01-19T03:10:41.347Z,1033.85
2017-01-19T03:11:52.943Z,1033.88
2017-01-19T03:13:04.338Z,1033.88
2017-01-19T03:14:15.782Z,1033.89
2017-01-19T03:15:27.174Z,1033.86
2017-01-19T03:16:38.773Z,1033.87
2017-01-19T03:17:50.173Z,1033.86
2017-01-19T03:19:01.563Z,1033.88
2017-01-19T03:20:13.025Z,1033.81
2017-01-19T03:21:24.420Z,1033.85
2017-01-19T03:22:36.015Z,1033.81
2017-01-19T03:23:47.615Z,1033.75
2017-01-19T03:24:59.012Z,1033.73
2017-01-19T03:26:10.656Z,1033.72
2017-01-19T03:27:22.058Z,1033.73
2017-01-19T03:28:33.443Z,1033.74
2017-01-19T03:29:44.871Z,1033.73
2017-01-19T03:30:56.260Z,1033.75
2017-01-19T03:32:07.706Z,1033.72
2017-01-19T03:33:19.096Z,1033.68
2017-01-19T03:34:30.489Z,1033.75
2017-01-19T03:35:41.889Z,1033.75
2017-01-19T03:36:53.284Z,1033.78
2017-01-19T03:38:04.732Z,1033.78
2017-01-19T03:39:16.124Z,1033.8
2017-01-19T03:40:27.530Z,1033.81
2017-01-19T03:41:38.923Z,1033.83
2017-01-19T03:42:50.323Z,1033.87
2017-01-19T03:44:01.764Z,1033.93
2017-01-19T03:45:13.161Z,1033.89
2017-01-19T03:46:24.563Z,1033.92
2017-01-19T03:47:36.155Z,1033.9
2017-01-19T03:48:47.551Z,1033.89
2017-01-19T03:49:58.997Z,1033.89
2017-01-19T03:51:10.384Z,1033.88
2017-01-19T03:52:21.781Z,1033.96
2017-01-19T03:53:33.201Z,1033.94
2017-01-19T03:54:44.610Z,1033.86
2017-01-19T03:55:56.050Z,1033.88
2017-01-19T03:57:07.450Z,1033.9
2017-01-19T03:58:18.847Z,1033.9
2017-01-19T03:59:30.252Z,1033.91
2017-01-19T04:00:41.679Z,1033.9
2017-01-19T04:01:53.134Z,1033.92
2017-01-19T04:03:04.528Z,1033.92
2017-01-19T04:04:15.921Z,1033.9
2017-01-19T04:05:27.306Z,1033.94
2017-01-19T04:06:38.902Z,1033.93
2017-01-19T04:07:50.349Z,1033.9
2017-01-19T04:09:01.748Z,1033.91
2017-01-19T04:10:13.141Z,1033.92
2017-01-19T04:11:24.553Z,1033.93
2017-01-19T04:12:35.947Z,1033.92
2017-01-19T04:13:47.399Z,1033.9
2017-01-19T04:14:58.830Z,1033.88
2017-01-19T04:16:10.421Z,1033.87
2017-01-19T04:17:21.807Z,1033.91
2017-01-19T04:18:33.192Z,1033.89
2017-01-19T04:19:44.638Z,1033.85
2017-01-19T04:20:56.028Z,1033.82
2017-01-19T04:22:07.434Z,1033.82
2017-01-19T04:23:18.829Z,1033.78
2017-01-19T04:24:30.228Z,1033.78
2017-01-19T04:25:41.681Z,1033.75
2017-01-19T04:26:53.276Z,1033.74
2017-01-19T04:28:04.674Z,1033.73
2017-01-19T04:29:16.277Z,1033.72
2017-01-19T04:30:27.671Z,1033.68
2017-01-19T04:31:39.323Z,1033.69
2017-01-19T04:32:50.718Z,1033.66
2017-01-19T04:34:02.111Z,1033.69
2017-01-19T04:35:13.508Z,1033.7
2017-01-19T04:36:25.098Z,1033.62
2017-01-19T04:37:36.536Z,1033.64
2017-01-19T04:38:47.936Z,1033.63
2017-01-19T04:39:59.529Z,1033.59
2017-01-19T04:41:10.922Z,1033.59
2017-01-19T04:42:22.354Z,1033.56
2017-01-19T04:43:33.794Z,1033.58
2017-01-19T04:44:45.385Z,1033.57
2017-01-19T04:45:56.783Z,1033.61
2017-01-19T04:47:08.180Z,1033.55
2017-01-19T04:48:19.578Z,1033.56
2017-01-19T04:49:31.016Z,1033.59
2017-01-19T04:50:42.411Z,1033.58
2017-01-19T04:51:54.001Z,1033.56
2017-01-19T04:53:05.593Z,1033.52
2017-01-19T04:54:16.988Z,1033.51
2017-01-19T04:55:28.431Z,1033.5
2017-01-19T04:56:39.818Z,1033.47
2017-01-19T04:57:51.205Z,1033.44
2017-01-19T04:59:02.799Z,1033.47
2017-01-19T05:00:14.394Z,1033.44
2017-01-19T05:01:25.839Z,1033.47
2017-01-19T05:02:37.231Z,1033.47
2017-01-19T05:03:48.644Z,1033.45
2017-01-19T05:05:00.237Z,1033.4
2017-01-19T05:06:11.656Z,1033.42
2017-01-19T05:07:23.299Z,1033.41
2017-01-19T05:08:34.691Z,1033.37
2017-01-19T05:09:46.080Z,1033.37
2017-01-19T05:10:57.470Z,1033.35
2017-01-19T05:12:08.860Z,1033.32
2017-01-19T05:13:20.503Z,1033.37
2017-01-19T05:14:31.893Z,1033.38
2017-01-19T05:15:43.290Z,1033.37
2017-01-19T05:16:54.685Z,1033.39
2017-01-19T05:18:06.080Z,1033.38
2017-01-19T05:19:17.519Z,1033.37
2017-01-19T05:20:28.915Z,1033.4
2017-01-19T05:21:40.726Z,1033.38
2017-01-19T05:22:52.125Z,1033.4
2017-01-19T05:24:03.515Z,1033.39
2017-01-19T05:25:15.152Z,1033.36
2017-01-19T05:26:26.539Z,1033.33
2017-01-19T05:27:37.930Z,1033.33
2017-01-19T05:28:49.525Z,1033.36
2017-01-19T05:30:00.954Z,1033.33
2017-01-19T05:31:12.405Z,1033.33
2017-01-19T05:32:23.991Z,1033.31
2017-01-19T05:33:35.389Z,1033.34
2017-01-19T05:34:46.783Z,1033.29
2017-01-19T05:35:58.212Z,1033.29
2017-01-19T05:37:09.642Z,1033.3
2017-01-19T05:38:21.037Z,1033.26
2017-01-19T05:39:32.430Z,1033.25
2017-01-19T05:40:43.827Z,1033.31
2017-01-19T05:41:55.218Z,1033.26
2017-01-19T05:43:06.663Z,1033.29
2017-01-19T05:44:18.094Z,1033.28
2017-01-19T05:45:29.485Z,1033.21
2017-01-19T05:46:40.874Z,1033.23
2017-01-19T05:47:52.264Z,1033.2
2017-01-19T05:49:03.709Z,1033.22
2017-01-19T05:50:15.106Z,1033.15
2017-01-19T05:51:26.529Z,1033.17
2017-01-19T05:52:37.920Z,1033.09
2017-01-19T05:53:49.307Z,1033.08
2017-01-19T05:55:00.759Z,1033.1
2017-01-19T05:56:12.153Z,1033.13
2017-01-19T05:57:23.751Z,1033.16
2017-01-19T05:58:35.144Z,1033.15
2017-01-19T05:59:46.544Z,1033.19
2017-01-19T06:00:57.996Z,1033.19
2017-01-19T06:02:09.392Z,1033.24
2017-01-19T06:03:20.782Z,1033.25
2017-01-19T06:04:32.779Z,1033.25
2017-01-19T06:05:44.183Z,1033.25
2017-01-19T06:06:55.625Z,1033.25
2017-01-19T06:08:07.018Z,1033.24
2017-01-19T06:09:18.413Z,1033.27
2017-01-19T06:10:29.812Z,1033.23
2017-01-19T06:11:41.214Z,1033.23
2017-01-19T06:12:52.666Z,1033.27
2017-01-19T06:14:04.062Z,1033.2
2017-01-19T06:15:15.658Z,1033.21
2017-01-19T06:16:27.056Z,1033.22
2017-01-19T06:17:38.453Z,1033.18
2017-01-19T06:18:50.094Z,1033.21
2017-01-19T06:20:01.495Z,1033.24
2017-01-19T06:21:12.885Z,1033.3
2017-01-19T06:22:24.273Z,1033.32
2017-01-19T06:23:35.665Z,1033.32
2017-01-19T06:24:47.104Z,1033.3
2017-01-19T06:25:58.702Z,1033.29
2017-01-19T06:27:10.089Z,1033.33
2017-01-19T06:28:21.686Z,1033.32
2017-01-19T06:29:33.088Z,1033.32
2017-01-19T06:30:44.531Z,1033.35
2017-01-19T06:31:55.922Z,1033.34
2017-01-19T06:33:07.305Z,1033.35
2017-01-19T06:34:18.697Z,1033.37
2017-01-19T06:35:30.098Z,1033.34
2017-01-19T06:36:41.541Z,1033.36
2017-01-19T06:37:52.929Z,1033.39
2017-01-19T06:39:04.532Z,1033.4
2017-01-19T06:40:15.928Z,1033.44
2017-01-19T06:41:27.320Z,1033.44
2017-01-19T06:42:38.785Z,1033.44
2017-01-19T06:43:50.180Z,1033.4
2017-01-19T06:45:01.570Z,1033.45
2017-01-19T06:46:13.370Z,1033.43
2017-01-19T06:47:24.761Z,1033.47
2017-01-19T06:48:36.203Z,1033.46
2017-01-19T06:49:47.793Z,1033.46
2017-01-19T06:50:59.378Z,1033.48
2017-01-19T06:52:11.008Z,1033.45
2017-01-19T06:53:22.606Z,1033.5
2017-01-19T06:54:34.050Z,1033.49
2017-01-19T06:55:45.443Z,1033.52
2017-01-19T06:56:56.839Z,1033.49
2017-01-19T06:58:08.459Z,1033.51
2017-01-19T06:59:19.849Z,1033.48
2017-01-19T07:00:31.693Z,1033.42
2017-01-19T07:01:43.085Z,1033.46
2017-01-19T07:02:54.489Z,1033.5
2017-01-19T07:04:06.079Z,1033.52
2017-01-19T07:05:17.470Z,1033.5
2017-01-19T07:06:28.914Z,1033.57
2017-01-19T07:07:40.311Z,1033.48
2017-01-19T07:08:51.706Z,1033.49
2017-01-19T07:10:03.097Z,1033.55
2017-01-19T07:11:14.488Z,1033.53
2017-01-19T07:12:25.932Z,1033.57
2017-01-19T07:13:37.324Z,1033.61
2017-01-19T07:14:48.917Z,1033.61
2017-01-19T07:16:00.713Z,1033.62
2017-01-19T07:17:12.110Z,1033.71
2017-01-19T07:18:23.549Z,1033.67
2017-01-19T07:19:34.940Z,1033.68
2017-01-19T07:20:46.327Z,1033.73
2017-01-19T07:21:57.722Z,1033.77
2017-01-19T07:23:09.315Z,1033.8
2017-01-19T07:24:20.759Z,1033.82
2017-01-19T07:25:32.180Z,1033.75
2017-01-19T07:26:43.577Z,1033.8
2017-01-19T07:27:55.370Z,1033.82
2017-01-19T07:29:06.970Z,1033.87
2017-01-19T07:30:18.410Z,1033.84
2017-01-19T07:31:29.811Z,1033.86
2017-01-19T07:32:41.412Z,1033.89
2017-01-19T07:33:52.828Z,1033.91
2017-01-19T07:35:04.419Z,1033.92
2017-01-19T07:36:15.867Z,1033.88
2017-01-19T07:37:27.266Z,1033.85
2017-01-19T07:38:38.663Z,1033.88
2017-01-19T07:39:50.058Z,1033.83
2017-01-19T07:41:01.651Z,1033.88
2017-01-19T07:42:13.092Z,1033.9
2017-01-19T07:43:24.691Z,1033.92
2017-01-19T07:44:36.081Z,1033.85
2017-01-19T07:45:47.464Z,1033.87
2017-01-19T07:46:58.860Z,1033.9
2017-01-19T07:48:10.300Z,1033.9
2017-01-19T07:49:21.690Z,1033.88
2017-01-19T07:50:33.086Z,1033.84
2017-01-19T07:51:44.477Z,1033.85
2017-01-19T07:52:55.869Z,1033.85
2017-01-19T07:54:07.311Z,1033.86
2017-01-19T07:55:18.707Z,1033.85
2017-01-19T07:56:30.094Z,1033.82
2017-01-19T07:57:41.481Z,1033.81
2017-01-19T07:58:52.873Z,1033.84
2017-01-19T08:00:04.343Z,1033.84
2017-01-19T08:01:15.727Z,1033.8
2017-01-19T08:02:27.123Z,1033.77
2017-01-19T08:03:38.717Z,1033.79
2017-01-19T08:04:50.121Z,1033.82
2017-01-19T08:06:01.561Z,1033.78
2017-01-19T08:07:12.953Z,1033.85
2017-01-19T08:08:24.350Z,1033.85
2017-01-19T08:09:35.747Z,1033.85
2017-01-19T08:10:47.137Z,1033.85
2017-01-19T08:11:58.602Z,1033.83
2017-01-19T08:13:09.999Z,1033.85
2017-01-19T08:14:21.591Z,1033.86
2017-01-19T08:15:32.981Z,1033.88
2017-01-19T08:16:44.381Z,1033.9
2017-01-19T08:17:55.818Z,1033.87
2017-01-19T08:19:07.211Z,1033.8
2017-01-19T08:20:18.613Z,1033.77
2017-01-19T08:21:30.008Z,1033.74
2017-01-19T08:22:41.611Z,1033.79
2017-01-19T08:23:53.061Z,1033.78
2017-01-19T08:25:04.454Z,1033.76
2017-01-19T08:26:15.848Z,1033.75
2017-01-19T08:27:27.245Z,1033.65
2017-01-19T08:28:38.639Z,1033.71
2017-01-19T08:29:50.085Z,1033.74
2017-01-19T08:31:01.483Z,1033.78
2017-01-19T08:32:12.882Z,1033.78
2017-01-19T08:33:24.273Z,1033.75
2017-01-19T08:34:35.664Z,1033.77
2017-01-19T08:35:47.109Z,1033.81
2017-01-19T08:36:58.502Z,1033.85
2017-01-19T08:38:09.889Z,1033.87
2017-01-19T08:39:21.293Z,1033.85
2017-01-19T08:40:32.692Z,1033.8
2017-01-19T08:41:44.239Z,1033.87
2017-01-19T08:42:55.638Z,1033.84
2017-01-19T08:44:07.239Z,1033.8
2017-01-19T08:45:18.647Z,1033.85
2017-01-19T08:46:30.070Z,1033.86
2017-01-19T08:47:41.518Z,1033.87
2017-01-19T08:48:53.316Z,1033.89
2017-01-19T08:50:04.718Z,1033.92
2017-01-19T08:51:16.114Z,1033.94
2017-01-19T08:52:27.709Z,1033.92
2017-01-19T08:53:39.154Z,1033.95
2017-01-19T08:54:50.756Z,1033.99
2017-01-19T08:56:02.156Z,1033.97
2017-01-19T08:57:13.547Z,1034
2017-01-19T08:58:24.945Z,1034
2017-01-19T08:59:36.801Z,1034.05
2017-01-19T09:00:48.205Z,1034.06
2017-01-19T09:01:59.602Z,1034.07
2017-01-19T09:03:11.204Z,1034.1
2017-01-19T09:04:22.592Z,1034.11
2017-01-19T09:05:34.042Z,1034.09
2017-01-19T09:06:45.482Z,1034.13
2017-01-19T09:07:56.884Z,1034.11
2017-01-19T09:09:08.279Z,1034.11
2017-01-19T09:10:19.686Z,1034.17
2017-01-19T09:11:31.135Z,1034.17
2017-01-19T09:12:42.523Z,1034.15
2017-01-19T09:13:53.914Z,1034.18
2017-01-19T09:15:05.315Z,1034.18
2017-01-19T09:16:16.705Z,1034.22
2017-01-19T09:17:28.348Z,1034.22
2017-01-19T09:18:39.753Z,1034.24
2017-01-19T09:19:51.149Z,1034.27
2017-01-19T09:21:02.548Z,1034.3
2017-01-19T09:22:14.149Z,1034.21
2017-01-19T09:23:25.605Z,1034.23
2017-01-19T09:24:37.005Z,1034.15
2017-01-19T09:25:48.406Z,1034.15
2017-01-19T09:26:59.802Z,1034.14
2017-01-19T09:28:11.211Z,1034.18
2017-01-19T09:29:22.666Z,1034.18
2017-01-19T09:30:34.062Z,1034.18
2017-01-19T09:31:45.463Z,1034.16
2017-01-19T09:32:56.864Z,1034.25
2017-01-19T09:34:08.273Z,1034.29
2017-01-19T09:35:19.726Z,1034.26
2017-01-19T09:36:31.128Z,1034.26
2017-01-19T09:37:42.729Z,1034.33
2017-01-19T09:38:54.343Z,1034.33
2017-01-19T09:40:05.773Z,1034.27
2017-01-19T09:41:17.232Z,1034.24
2017-01-19T09:42:28.639Z,1034.27
2017-01-19T09:43:40.045Z,1034.29
2017-01-19T09:44:51.652Z,1034.29
2017-01-19T09:46:03.053Z,1034.32
2017-01-19T09:47:14.509Z,1034.36
2017-01-19T09:48:25.943Z,1034.3
2017-01-19T09:49:37.352Z,1034.3
2017-01-19T09:50:48.957Z,1034.33
2017-01-19T09:52:00.369Z,1034.36
2017-01-19T09:53:12.018Z,1034.35
2017-01-19T09:54:23.455Z,1034.39
2017-01-19T09:55:34.859Z,1034.37
2017-01-19T09:56:46.259Z,1034.37
2017-01-19T09:57:57.660Z,1034.42
2017-01-19T09:59:09.316Z,1034.4
2017-01-19T10:00:20.931Z,1034.34
2017-01-19T10:01:32.328Z,1034.32
2017-01-19T10:02:43.735Z,1034.36
2017-01-19T10:03:55.141Z,1034.36
2017-01-19T10:05:06.789Z,1034.4
2017-01-19T10:06:18.390Z,1034.32
2017-01-19T10:07:30.202Z,1034.3
2017-01-19T10:08:41.601Z,1034.3
2017-01-19T10:09:53.003Z,1034.33
2017-01-19T10:11:04.659Z,1034.27
2017-01-19T10:12:16.265Z,1034.29
2017-01-19T10:13:28.065Z,1034.31
2017-01-19T10:14:39.465Z,1034.28
2017-01-19T10:15:50.865Z,1034.29
2017-01-19T10:17:02.518Z,1034.24
2017-01-19T10:18:13.919Z,1034.23
2017-01-19T10:19:25.321Z,1034.13
2017-01-19T10:20:36.926Z,1034.11
2017-01-19T10:21:48.529Z,1034.09
2017-01-19T10:22:59.985Z,1034.08
2017-01-19T10:24:11.390Z,1034.09
2017-01-19T10:25:22.785Z,1034.13
2017-01-19T10:26:34.193Z,1034.12
2017-01-19T10:27:45.592Z,1034.12
2017-01-19T10:28:57.037Z,1034.13
2017-01-19T10:30:08.437Z,1034.15
2017-01-19T10:31:20.068Z,1034.19
2017-01-19T10:32:31.475Z,1034.12
2017-01-19T10:33:43.284Z,1034.13
2017-01-19T10:34:54.929Z,1034.14
2017-01-19T10:36:06.334Z,1034.16
2017-01-19T10:37:17.733Z,1034.1
2017-01-19T10:38:29.125Z,1034.11
2017-01-19T10:39:40.525Z,1034.12
2017-01-19T10:40:51.986Z,1034.15
2017-01-19T10:42:03.386Z,1034.21
2017-01-19T10:43:14.787Z,1034.14
2017-01-19T10:44:26.389Z,1034.17
2017-01-19T10:45:37.787Z,1034.09
2017-01-19T10:46:49.235Z,1034.04
2017-01-19T10:48:00.633Z,1034.06
2017-01-19T10:49:12.035Z,1034.05
2017-01-19T10:50:23.443Z,1034.05
2017-01-19T10:51:34.845Z,1033.94
2017-01-19T10:52:46.297Z,1033.89
2017-01-19T10:53:57.898Z,1033.82
2017-01-19T10:55:09.506Z,1033.82
2017-01-19T10:56:20.902Z,1033.81
2017-01-19T10:57:32.306Z,1033.82
2017-01-19T10:58:43.753Z,1033.85
2017-01-19T10:59:55.351Z,1033.92
2017-01-19T11:01:07.155Z,1033.92
2017-01-19T11:02:18.551Z,1033.87
2017-01-19T11:03:30.174Z,1033.82
2017-01-19T11:04:41.620Z,1033.83
2017-01-19T11:05:53.029Z,1033.84
2017-01-19T11:07:04.445Z,1033.92
2017-01-19T11:08:15.851Z,1033.91
2017-01-19T11:09:27.257Z,1033.87
2017-01-19T11:10:38.713Z,1033.82
2017-01-19T11:11:50.122Z,1033.85
2017-01-19T11:13:01.524Z,1033.78
2017-01-19T11:14:12.926Z,1033.75
2017-01-19T11:15:24.326Z,1033.68
2017-01-19T11:16:35.769Z,1033.65
2017-01-19T11:17:47.181Z,1033.64
2017-01-19T11:18:58.590Z,1033.7
2017-01-19T11:20:10.009Z,1033.66
2017-01-19T11:21:21.419Z,1033.67
2017-01-19T11:22:32.895Z,1033.7
2017-01-19T11:23:44.297Z,1033.66
2017-01-19T11:24:55.702Z,1033.66
2017-01-19T11:26:07.100Z,1033.67
2017-01-19T11:27:18.512Z,1033.67
2017-01-19T11:28:29.971Z,1033.53
2017-01-19T11:29:41.371Z,1033.47
2017-01-19T11:30:52.779Z,1033.45
2017-01-19T11:32:04.190Z,1033.42
2017-01-19T11:33:15.619Z,1033.45
2017-01-19T11:34:27.274Z,1033.53
2017-01-19T11:35:38.680Z,1033.46
2017-01-19T11:36:50.115Z,1033.44
2017-01-19T11:38:01.522Z,1033.46
2017-01-19T11:39:12.933Z,1033.44
2017-01-19T11:40:24.408Z,1033.43
2017-01-19T11:41:35.831Z,1033.39
2017-01-19T11:42:47.238Z,1033.38
2017-01-19T11:43:58.636Z,1033.36
2017-01-19T11:45:10.045Z,1033.38
2017-01-19T11:46:21.501Z,1033.44
2017-01-19T11:47:32.901Z,1033.57
2017-01-19T11:48:44.310Z,1033.62
2017-01-19T11:49:55.716Z,1033.59
2017-01-19T11:51:07.113Z,1033.55
2017-01-19T11:52:18.560Z,1033.46
2017-01-19T11:53:29.964Z,1033.52
2017-01-19T11:54:41.383Z,1033.51
2017-01-19T11:55:53.017Z,1033.54
2017-01-19T11:57:04.420Z,1033.48
2017-01-19T11:58:15.874Z,1033.47
2017-01-19T11:59:27.309Z,1033.45
2017-01-19T12:00:38.720Z,1033.4
2017-01-19T12:01:50.129Z,1033.41
2017-01-19T12:03:01.736Z,1033.42
2017-01-19T12:04:13.195Z,1033.43
2017-01-19T12:05:24.601Z,1033.43
2017-01-19T12:06:36.209Z,1033.44
2017-01-19T12:07:47.613Z,1033.44
2017-01-19T12:08:59.017Z,1033.41
2017-01-19T12:10:10.496Z,1033.39
2017-01-19T12:11:21.902Z,1033.33
2017-01-19T12:12:33.304Z,1033.31
2017-01-19T12:13:44.709Z,1033.23
2017-01-19T12:14:56.138Z,1033.21
2017-01-19T12:16:07.797Z,1033.21
2017-01-19T12:17:19.408Z,1033.17
2017-01-19T12:18:30.827Z,1033.13
2017-01-19T12:19:42.232Z,1033.08
2017-01-19T12:20:53.842Z,1033.09
2017-01-19T12:22:05.293Z,1033.12
2017-01-19T12:23:16.697Z,1033.06
2017-01-19T12:24:28.300Z,1033.04
2017-01-19T12:25:39.703Z,1033.06
2017-01-19T12:26:51.112Z,1033.03
2017-01-19T12:28:02.771Z,1033.09
2017-01-19T12:29:14.186Z,1033.07
2017-01-19T12:30:25.589Z,1033.02
2017-01-19T12:31:36.995Z,1032.99
2017-01-19T12:32:48.398Z,1032.97
2017-01-19T12:33:59.851Z,1032.96
2017-01-19T12:35:11.260Z,1032.99
2017-01-19T12:36:22.670Z,1033
2017-01-19T12:37:34.082Z,1032.95
2017-01-19T12:38:45.719Z,1032.89
2017-01-19T12:39:57.168Z,1032.89
2017-01-19T12:41:08.772Z,1032.89
2017-01-19T12:42:20.190Z,1032.86
2017-01-19T12:43:31.605Z,1032.85
2017-01-19T12:44:43.013Z,1032.87
2017-01-19T12:45:54.467Z,1032.82
2017-01-19T12:47:05.877Z,1032.82
2017-01-19T12:48:17.286Z,1032.8
2017-01-19T12:49:28.692Z,1032.84
2017-01-19T12:50:40.101Z,1032.83
2017-01-19T12:51:51.757Z,1032.79
2017-01-19T12:53:03.191Z,1032.78
2017-01-19T12:54:14.791Z,1032.78
2017-01-19T12:55:26.199Z,1032.78
2017-01-19T12:56:37.604Z,1032.79
2017-01-19T12:57:49.056Z,1032.7
2017-01-19T12:59:00.488Z,1032.7
2017-01-19T13:00:11.892Z,1032.69
2017-01-19T13:01:23.323Z,1032.7
2017-01-19T13:02:34.727Z,1032.66
2017-01-19T13:03:46.205Z,1032.7
2017-01-19T13:04:57.815Z,1032.71
2017-01-19T13:06:09.231Z,1032.72
2017-01-19T13:07:20.652Z,1032.76
2017-01-19T13:08:32.058Z,1032.75
2017-01-19T13:09:43.516Z,1032.8
2017-01-19T13:10:54.920Z,1032.71
2017-01-19T13:12:06.524Z,1032.68
2017-01-19T13:13:17.955Z,1032.72
2017-01-19T13:14:29.371Z,1032.69
2017-01-19T13:15:41.027Z,1032.73
2017-01-19T13:16:52.636Z,1032.69
2017-01-19T13:18:04.070Z,1032.66
2017-01-19T13:19:15.469Z,1032.67
2017-01-19T13:20:26.870Z,1032.66
2017-01-19T13:21:38.319Z,1032.66
2017-01-19T13:22:49.715Z,1032.66
2017-01-19T13:24:01.127Z,1032.69
2017-01-19T13:25:12.529Z,1032.68
2017-01-19T13:26:23.940Z,1032.65
2017-01-19T13:27:35.595Z,1032.65
2017-01-19T13:28:47.031Z,1032.7
2017-01-19T13:29:58.642Z,1032.69
2017-01-19T13:31:10.440Z,1032.68
2017-01-19T13:32:21.847Z,1032.66
2017-01-19T13:33:33.319Z,1032.67
2017-01-19T13:34:44.920Z,1032.68
2017-01-19T13:35:56.528Z,1032.68
2017-01-19T13:37:07.937Z,1032.71
2017-01-19T13:38:19.353Z,1032.72
2017-01-19T13:39:30.805Z,1032.74
2017-01-19T13:40:42.206Z,1032.74
2017-01-19T13:41:53.826Z,1032.75
2017-01-19T13:43:05.430Z,1032.76
2017-01-19T13:44:16.861Z,1032.74
2017-01-19T13:45:28.309Z,1032.73
2017-01-19T13:46:39.710Z,1032.76
2017-01-19T13:47:51.122Z,1032.72
2017-01-19T13:49:02.534Z,1032.72
2017-01-19T13:50:13.940Z,1032.73
2017-01-19T13:51:25.387Z,1032.72
2017-01-19T13:52:36.792Z,1032.68
2017-01-19T13:53:48.218Z,1032.69
2017-01-19T13:54:59.622Z,1032.68
2017-01-19T13:56:11.019Z,1032.65
2017-01-19T13:57:22.478Z,1032.67
2017-01-19T13:58:33.891Z,1032.65
2017-01-19T13:59:45.297Z,1032.68
2017-01-19T14:00:56.705Z,1032.67
2017-01-19T14:02:08.137Z,1032.64
2017-01-19T14:03:19.595Z,1032.69
2017-01-19T14:04:30.987Z,1032.66
2017-01-19T14:05:42.379Z,1032.71
2017-01-19T14:06:53.782Z,1032.7
2017-01-19T14:08:05.179Z,1032.71
2017-01-19T14:09:16.631Z,1032.69
2017-01-19T14:10:28.043Z,1032.7
2017-01-19T14:11:39.439Z,1032.67
2017-01-19T14:12:50.842Z,1032.69
2017-01-19T14:14:02.649Z,1032.66
2017-01-19T14:15:14.107Z,1032.68
2017-01-19T14:16:25.515Z,1032.63
2017-01-19T14:17:37.120Z,1032.62
2017-01-19T14:18:48.532Z,1032.62
2017-01-19T14:19:59.927Z,1032.66
2017-01-19T14:21:11.383Z,1032.65
2017-01-19T14:22:22.979Z,1032.65
2017-01-19T14:23:34.386Z,1032.64
2017-01-19T14:24:45.793Z,1032.6
2017-01-19T14:25:57.195Z,1032.61
2017-01-19T14:27:09.074Z,1032.63